Time;durP1;ratioP1;P1;durP2;ratioP2;P2;SDS_P1;SDS_P2;PMS_P1;PMS_P2;Temp;Humidity;BMP_temperature;BMP_pressure;BME280_temperature;BME280_humidity;BME280_pressure;Samples;Min_cycle;Max_cycle;Signal;HPM_P1;HPM_P2
2022/01/22 00:01:28;;;;;;;13.02;4.40;;;5.80;99.90;;;;;;5092256;28;20055;-72
2022/01/22 00:03:53;;;;;;;8.80;4.53;;;5.80;99.90;;;;;;5092791;28;20391;-71
2022/01/22 00:06:20;;;;;;;8.80;4.07;;;5.80;99.90;;;;;;5092026;28;20028;-73
2022/01/22 00:08:46;;;;;;;17.20;4.88;;;5.70;99.90;;;;;;5091936;28;20464;-71
2022/01/22 00:11:12;;;;;;;10.88;4.57;;;5.70;99.90;;;;;;5091976;28;20016;-71
2022/01/22 00:16:22;;;;;;;15.98;4.82;;;5.80;99.90;;;;;;5091601;28;20074;-71
2022/01/22 00:18:47;;;;;;;12.32;4.45;;;5.90;99.90;;;;;;5092598;28;20384;-73
2022/01/22 00:21:14;;;;;;;11.60;4.57;;;5.90;99.90;;;;;;5092012;28;20028;-72
2022/01/22 00:23:45;;;;;;;12.20;5.07;;;6.00;99.90;;;;;;5091944;28;20027;-73
2022/01/22 00:26:11;;;;;;;9.90;4.43;;;6.00;99.90;;;;;;5092071;28;20116;-73
2022/01/22 00:28:36;;;;;;;17.08;4.85;;;5.90;99.90;;;;;;5094589;28;20111;-73
2022/01/22 00:31:02;;;;;;;21.80;7.40;;;5.90;99.90;;;;;;5096360;28;20031;-73
2022/01/22 00:33:27;;;;;;;14.05;5.07;;;5.90;99.90;;;;;;5096217;28;20020;-73
2022/01/22 00:35:53;;;;;;;14.38;4.65;;;5.90;99.90;;;;;;5095633;28;20024;-73
2022/01/22 00:38:19;;;;;;;16.33;4.90;;;5.90;99.90;;;;;;5095719;28;20080;-73
2022/01/22 00:40:50;;;;;;;14.00;4.60;;;5.80;99.90;;;;;;5095908;28;20028;-73
2022/01/22 00:43:16;;;;;;;19.30;5.28;;;5.90;99.90;;;;;;5094303;28;20431;-73
2022/01/22 00:45:41;;;;;;;20.25;6.90;;;5.90;99.90;;;;;;5087628;28;20111;-73
2022/01/22 00:48:07;;;;;;;14.65;4.43;;;6.00;99.90;;;;;;5075410;28;20020;-72
2022/01/22 00:50:33;;;;;;;12.07;4.63;;;6.00;99.90;;;;;;5074883;28;20024;-72
2022/01/22 00:52:58;;;;;;;7.38;4.57;;;6.00;99.90;;;;;;5075663;28;20025;-72
2022/01/22 00:55:24;;;;;;;14.98;5.00;;;6.00;99.90;;;;;;5075221;28;20032;-73
2022/01/22 00:57:49;;;;;;;11.43;4.40;;;6.00;99.90;;;;;;5074825;28;20042;-73
2022/01/22 01:00:16;;;;;;;18.75;5.03;;;6.00;99.90;;;;;;5075381;28;20036;-72
2022/01/22 01:02:43;;;;;;;13.52;4.88;;;5.90;99.90;;;;;;5075237;28;20033;-72
2022/01/22 01:05:10;;;;;;;17.42;6.63;;;6.00;99.90;;;;;;5074232;28;20071;-73
2022/01/22 01:07:36;;;;;;;15.05;5.15;;;6.00;99.90;;;;;;5075215;28;20098;-72
2022/01/22 01:10:03;;;;;;;11.30;5.07;;;6.00;99.90;;;;;;5075765;28;20040;-71
2022/01/22 01:12:29;;;;;;;26.55;5.85;;;6.00;99.90;;;;;;5074731;28;20530;-72
2022/01/22 01:15:16;;;;;;;13.10;5.35;;;5.90;99.90;;;;;;5075271;28;20028;-72
2022/01/22 01:34:02;;;;;;;10.77;4.90;;;5.80;99.90;;;;;;5074735;28;20035;-72
2022/01/22 01:36:27;;;;;;;13.27;5.47;;;5.80;99.90;;;;;;5074876;28;20489;-72
2022/01/22 01:38:57;;;;;;;13.43;5.75;;;5.80;99.90;;;;;;5073420;28;20099;-73
2022/01/22 01:41:39;;;;;;;18.92;7.22;;;5.80;99.90;;;;;;5074767;28;20036;-73
2022/01/22 01:44:05;;;;;;;17.77;5.82;;;5.80;99.90;;;;;;5074770;28;20483;-72
2022/01/22 01:46:32;;;;;;;9.43;5.53;;;5.80;99.90;;;;;;5073980;28;20044;-72
2022/01/22 01:48:58;;;;;;;8.07;5.47;;;5.80;99.90;;;;;;5074532;28;20025;-72
2022/01/22 01:51:27;;;;;;;11.82;6.25;;;5.80;99.90;;;;;;5074352;28;20490;-73
2022/01/22 01:54:06;;;;;;;15.80;5.78;;;5.80;99.90;;;;;;5073683;28;20367;-72
2022/01/22 01:59:17;;;;;;;14.00;6.15;;;5.80;99.90;;;;;;5074031;28;20074;-72
2022/01/22 02:01:43;;;;;;;20.83;6.03;;;5.70;99.90;;;;;;5073407;28;20032;-73
2022/01/22 02:04:11;;;;;;;15.25;6.60;;;5.70;99.90;;;;;;5073644;28;20024;-72
2022/01/22 02:06:37;;;;;;;21.27;6.95;;;5.70;99.90;;;;;;5074142;28;20055;-72
2022/01/22 02:09:07;;;;;;;18.05;5.97;;;5.90;99.90;;;;;;5072954;28;20033;-73
2022/01/22 02:11:34;;;;;;;19.42;6.50;;;5.90;99.90;;;;;;5074212;28;20116;-73
2022/01/22 02:24:48;;;;;;;10.90;4.88;;;5.90;99.90;;;;;;5074278;28;20439;-73
2022/01/22 02:27:17;;;;;;;10.18;5.00;;;6.00;99.90;;;;;;5073872;28;20039;-73
2022/01/22 02:29:43;;;;;;;17.40;4.97;;;5.90;99.90;;;;;;5072834;28;20021;-72
2022/01/22 02:35:06;;;;;;;17.67;5.85;;;5.90;99.90;;;;;;5072289;28;20384;-72
2022/01/22 02:37:36;;;;;;;15.32;5.50;;;5.90;99.90;;;;;;5073835;28;20034;-73
2022/01/22 02:40:09;;;;;;;9.95;4.35;;;5.90;99.90;;;;;;5073498;28;20029;-72
2022/01/22 02:42:35;;;;;;;16.70;5.15;;;6.00;99.90;;;;;;5072612;28;20492;-73
2022/01/22 02:45:08;;;;;;;6.63;3.75;;;6.00;99.90;;;;;;5073116;28;20506;-73
2022/01/22 02:47:34;;;;;;;14.88;4.30;;;6.00;99.90;;;;;;5073310;28;20025;-73
2022/01/22 02:50:00;;;;;;;8.70;3.70;;;6.10;99.90;;;;;;5071503;28;20025;-72
2022/01/22 02:52:26;;;;;;;9.48;3.92;;;6.10;99.90;;;;;;5073071;28;20039;-72
2022/01/22 02:54:51;;;;;;;7.78;3.60;;;6.20;99.90;;;;;;5072825;28;20065;-73
2022/01/22 02:57:19;;;;;;;13.68;3.60;;;6.10;99.90;;;;;;5072103;28;20055;-72
2022/01/22 02:59:45;;;;;;;12.75;3.50;;;6.10;99.90;;;;;;5072742;28;20025;-72
2022/01/22 03:02:14;;;;;;;14.15;4.05;;;6.10;99.90;;;;;;5072564;28;20369;-72
2022/01/22 03:04:41;;;;;;;9.48;2.90;;;6.10;99.90;;;;;;5072172;28;20028;-72
2022/01/22 03:07:07;;;;;;;12.75;3.17;;;6.20;99.90;;;;;;5072729;28;20072;-72
2022/01/22 03:09:39;;;;;;;13.52;3.15;;;6.10;99.90;;;;;;5073295;28;20024;-72
2022/01/22 03:22:22;;;;;;;16.23;3.17;;;6.20;99.90;;;;;;5072531;28;20423;-71
2022/01/22 03:27:33;;;;;;;11.43;3.10;;;6.20;99.90;;;;;;5072429;28;20039;-71
2022/01/22 03:30:00;;;;;;;13.23;2.95;;;6.20;99.90;;;;;;5072396;28;20512;-71
2022/01/22 03:32:30;;;;;;;12.40;3.00;;;6.10;99.90;;;;;;5071561;28;20029;-73
2022/01/22 03:35:11;;;;;;;12.25;3.17;;;6.20;99.90;;;;;;5072685;28;20059;-72
2022/01/22 03:37:38;;;;;;;18.00;4.97;;;6.20;99.90;;;;;;5072328;28;20498;-72
2022/01/22 03:40:07;;;;;;;12.15;2.97;;;6.20;99.90;;;;;;5071504;28;20021;-71
2022/01/22 03:42:34;;;;;;;8.20;2.67;;;6.10;99.90;;;;;;5072637;28;20411;-71
2022/01/22 03:45:00;;;;;;;14.20;2.80;;;6.20;99.90;;;;;;5072458;28;20020;-71
2022/01/22 03:47:25;;;;;;;10.13;3.35;;;6.10;99.90;;;;;;5071373;28;20036;-71
2022/01/22 03:49:51;;;;;;;11.98;3.03;;;6.20;99.90;;;;;;5072492;28;20021;-71
2022/01/22 03:52:20;;;;;;;9.45;2.78;;;6.10;99.90;;;;;;5071716;28;20427;-71
2022/01/22 03:54:46;;;;;;;15.70;3.53;;;6.10;99.90;;;;;;5072194;28;20016;-72
2022/01/22 03:57:12;;;;;;;18.15;5.60;;;6.20;99.90;;;;;;5075470;28;20028;-71
2022/01/22 03:59:37;;;;;;;12.48;3.13;;;6.20;99.90;;;;;;5071876;28;20021;-71
2022/01/22 04:04:45;;;;;;;14.85;3.00;;;6.20;99.90;;;;;;5071858;28;20115;-72
2022/01/22 04:09:59;;;;;;;7.85;2.38;;;6.20;99.90;;;;;;5072539;28;20078;-72
2022/01/22 04:12:38;;;;;;;18.65;4.25;;;6.10;99.90;;;;;;5072049;28;20048;-72
2022/01/22 04:15:06;;;;;;;10.13;3.38;;;6.10;99.90;;;;;;5070999;28;20032;-72
2022/01/22 04:25:36;;;;;;;;;;;6.20;99.90;;;;;;5072136;28;20158;-72
2022/01/22 04:28:02;;;;;;;12.20;2.70;;;6.20;99.90;;;;;;5070952;28;19923;-72
2022/01/22 04:30:28;;;;;;;13.23;4.88;;;6.20;99.90;;;;;;5071593;28;20419;-71
2022/01/22 04:32:54;;;;;;;9.93;2.35;;;6.30;99.90;;;;;;5071822;28;20079;-71
2022/01/22 04:35:22;;;;;;;13.95;3.15;;;6.30;99.90;;;;;;5070705;28;20455;-71
2022/01/22 04:37:49;;;;;;;16.85;3.42;;;6.40;99.90;;;;;;5071811;28;20031;-71
2022/01/22 04:40:15;;;;;;;15.38;2.58;;;6.30;99.90;;;;;;5071409;28;20070;-72
2022/01/22 04:42:42;;;;;;;19.48;4.07;;;6.40;99.90;;;;;;5070836;28;20040;-71
2022/01/22 04:46:07;;;;;;;12.38;3.25;;;6.40;99.90;;;;;;5071291;28;20478;-72
2022/01/22 04:48:43;;;;;;;11.48;2.42;;;6.40;99.90;;;;;;5060809;28;20040;-72
2022/01/22 04:55:53;;;;;;;8.07;2.08;;;6.20;99.90;;;;;;5071406;28;20021;-72
2022/01/22 04:58:18;;;;;;;8.07;1.88;;;6.30;99.90;;;;;;5072877;28;20078;-71
2022/01/22 05:00:45;;;;;;;11.68;2.03;;;6.30;99.90;;;;;;5071972;28;20361;-72
2022/01/22 05:03:11;;;;;;;7.57;2.33;;;6.30;99.90;;;;;;5070502;28;20477;-72
2022/01/22 05:05:36;;;;;;;12.30;2.88;;;6.30;99.90;;;;;;5071827;28;20032;-71
2022/01/22 05:08:02;;;;;;;12.07;2.42;;;6.30;99.90;;;;;;5071550;28;20480;-72
2022/01/22 05:10:27;;;;;;;8.65;2.05;;;6.40;99.90;;;;;;5072471;28;20133;-71
2022/01/22 05:12:53;;;;;;;6.10;2.30;;;6.30;99.90;;;;;;5072035;28;20082;-71
2022/01/22 05:15:20;;;;;;;6.80;1.95;;;6.40;99.90;;;;;;5075195;28;20032;-71
2022/01/22 05:17:46;;;;;;;8.80;2.53;;;6.40;99.90;;;;;;5074614;28;20025;-71
2022/01/22 05:20:20;;;;;;;14.93;2.72;;;6.30;99.90;;;;;;5074999;28;20067;-72
2022/01/22 05:25:36;;;;;;;7.13;2.00;;;6.30;99.90;;;;;;5074084;28;20032;-71
2022/01/22 05:28:15;;;;;;;5.57;1.98;;;6.30;99.90;;;;;;5075115;28;20034;-71
2022/01/22 05:38:33;;;;;;;15.38;2.00;;;6.30;99.90;;;;;;5074261;28;20050;-73
2022/01/22 05:40:59;;;;;;;9.30;2.38;;;6.30;99.90;;;;;;5074745;28;20040;-73
2022/01/22 05:43:25;;;;;;;13.27;1.88;;;6.30;99.90;;;;;;5074805;28;20433;-73
2022/01/22 05:45:51;;;;;;;6.40;1.77;;;6.30;99.90;;;;;;5074178;28;20028;-72
2022/01/22 05:48:17;;;;;;;10.30;2.25;;;6.30;99.90;;;;;;5074396;28;20081;-73
2022/01/22 05:50:53;;;;;;;7.65;1.77;;;6.30;99.90;;;;;;5074549;28;20029;-73
2022/01/22 06:01:31;;;;;;;6.55;1.67;;;6.20;99.90;;;;;;5074211;28;20090;-73
2022/01/22 06:03:56;;;;;;;11.48;2.00;;;6.30;99.90;;;;;;5074583;28;20051;-72
2022/01/22 06:06:22;;;;;;;8.00;2.22;;;6.20;99.90;;;;;;5073213;28;20063;-72
2022/01/22 06:08:52;;;;;;;8.23;1.90;;;6.20;99.90;;;;;;5074067;28;20066;-72
2022/01/22 06:11:23;;;;;;;7.95;2.25;;;6.20;99.90;;;;;;5073781;28;20078;-72
2022/01/22 06:13:50;;;;;;;13.38;2.20;;;6.20;99.90;;;;;;5073660;28;20146;-72
2022/01/22 06:16:24;;;;;;;10.45;2.30;;;6.40;99.90;;;;;;5084045;28;20045;-72
2022/01/22 06:18:51;;;;;;;13.65;2.60;;;6.40;99.90;;;;;;5094088;28;20070;-72
2022/01/22 06:21:17;;;;;;;12.93;1.65;;;6.40;99.90;;;;;;5093541;28;20032;-72
2022/01/22 06:23:45;;;;;;;6.15;2.25;;;6.40;99.90;;;;;;5094207;28;20031;-74
2022/01/22 06:26:12;;;;;;;12.13;2.22;;;6.40;99.90;;;;;;5093650;28;20028;-73
2022/01/22 06:28:42;;;;;;;16.58;2.15;;;6.40;99.90;;;;;;5093661;28;20031;-73
2022/01/22 06:31:08;;;;;;;;;;;6.40;99.90;;;;;;5094534;28;20047;-73
2022/01/22 06:33:34;;;;;;;10.07;1.75;;;6.50;99.90;;;;;;5094069;28;20351;-72
2022/01/22 06:35:59;;;;;;;15.13;2.13;;;6.40;99.90;;;;;;5079137;28;20037;-72
2022/01/22 06:38:25;;;;;;;15.50;2.15;;;6.50;99.90;;;;;;5072764;28;20021;-73
2022/01/22 06:43:35;;;;;;;13.18;2.85;;;6.50;99.90;;;;;;5072808;28;20115;-73
2022/01/22 06:46:00;;;;;;;6.47;2.03;;;6.50;99.90;;;;;;5072583;28;20115;-72
2022/01/22 06:48:26;;;;;;;4.88;1.83;;;6.50;99.90;;;;;;5071386;28;20036;-72
2022/01/22 06:50:52;;;;;;;11.90;1.83;;;6.50;99.90;;;;;;5072972;28;20028;-72
2022/01/22 06:53:18;;;;;;;11.10;1.77;;;6.50;99.90;;;;;;5072390;28;20465;-72
2022/01/22 06:55:50;;;;;;;7.22;2.45;;;6.50;99.90;;;;;;5071876;28;20035;-72
2022/01/22 06:58:16;;;;;;;10.00;2.30;;;6.50;99.90;;;;;;5075256;28;20032;-72
2022/01/22 07:00:41;;;;;;;10.43;2.40;;;6.50;99.90;;;;;;5072184;28;20013;-71
2022/01/22 07:03:13;;;;;;;4.65;1.63;;;6.50;99.90;;;;;;5074251;28;20453;-72
2022/01/22 07:05:38;;;;;;;6.63;2.20;;;6.50;99.90;;;;;;5072194;28;20039;-71
2022/01/22 07:08:04;;;;;;;8.60;2.05;;;6.60;99.90;;;;;;5071688;28;20131;-72
2022/01/22 07:10:31;;;;;;;11.63;2.22;;;6.60;99.90;;;;;;5071379;28;20036;-72
2022/01/22 07:12:56;;;;;;;5.70;2.20;;;6.60;99.90;;;;;;5072302;28;20077;-72
2022/01/22 07:15:22;;;;;;;10.05;3.45;;;6.60;99.90;;;;;;5072147;28;20025;-72
2022/01/22 07:17:47;;;;;;;10.45;2.28;;;6.50;99.90;;;;;;5076934;28;20456;-72
2022/01/22 07:20:16;;;;;;;5.10;1.75;;;6.60;99.90;;;;;;5074185;28;20400;-72
2022/01/22 07:23:00;;;;;;;11.48;2.33;;;6.20;99.90;;;;;;5081690;28;20040;-72
2022/01/22 07:25:26;;;;;;;6.43;2.17;;;6.70;99.90;;;;;;5088941;28;20482;-73
2022/01/22 07:27:52;;;;;;;15.88;2.40;;;6.60;99.90;;;;;;5092295;28;20013;-72
2022/01/22 07:30:18;;;;;;;10.43;2.17;;;6.60;99.90;;;;;;5088689;28;20016;-72
2022/01/22 07:32:44;;;;;;;7.32;1.80;;;6.60;99.90;;;;;;5090781;28;20073;-72
2022/01/22 07:35:17;;;;;;;8.05;1.85;;;6.60;99.90;;;;;;5091482;28;20077;-72
2022/01/22 07:37:42;;;;;;;11.25;1.92;;;6.60;99.90;;;;;;5085791;28;20025;-74
2022/01/22 07:40:10;;;;;;;4.38;1.58;;;6.70;99.90;;;;;;5071498;28;20040;-75
2022/01/22 07:42:37;;;;;;;6.40;1.98;;;6.70;99.90;;;;;;5074374;28;20064;-72
2022/01/22 07:45:04;;;;;;;4.18;2.08;;;6.70;99.90;;;;;;5090706;28;20023;-72
2022/01/22 07:47:33;;;;;;;9.18;2.25;;;6.60;99.90;;;;;;5091680;28;20024;-74
2022/01/22 07:49:58;;;;;;;5.13;2.38;;;6.70;99.90;;;;;;5087122;28;20135;-72
2022/01/22 07:52:24;;;;;;;10.02;2.58;;;6.70;99.90;;;;;;5079643;28;20103;-72
2022/01/22 07:54:50;;;;;;;9.73;2.95;;;6.60;99.90;;;;;;5087858;28;20356;-72
2022/01/22 07:57:16;;;;;;;7.40;2.67;;;6.70;99.90;;;;;;5085796;28;20028;-74
2022/01/22 07:59:41;;;;;;;6.93;2.65;;;6.80;99.90;;;;;;5091287;28;20069;-73
2022/01/22 08:02:07;;;;;;;8.05;3.33;;;6.80;99.90;;;;;;5089310;28;20082;-73
2022/01/22 08:04:33;;;;;;;8.00;2.72;;;6.80;99.90;;;;;;5081134;28;20016;-72
2022/01/22 08:07:03;;;;;;;7.45;3.05;;;6.80;99.90;;;;;;5090986;28;20442;-72
2022/01/22 08:09:28;;;;;;;8.73;2.88;;;6.80;99.90;;;;;;5088218;28;20024;-75
2022/01/22 08:11:54;;;;;;;10.70;2.60;;;6.90;99.90;;;;;;5071894;28;20066;-73
2022/01/22 08:14:20;;;;;;;9.90;2.88;;;6.90;99.90;;;;;;5074380;28;20020;-73
2022/01/22 08:16:48;;;;;;;8.30;3.33;;;6.90;99.90;;;;;;5088459;28;20024;-73
2022/01/22 08:19:15;;;;;;;10.48;3.47;;;6.90;99.90;;;;;;5092477;28;20103;-74
2022/01/22 08:21:45;;;;;;;8.48;3.38;;;6.90;99.90;;;;;;5089032;28;20036;-73
2022/01/22 08:24:15;;;;;;;11.27;3.40;;;6.90;99.90;;;;;;5091846;28;20488;-72
2022/01/22 08:26:49;;;;;;;10.45;4.38;;;6.90;99.90;;;;;;5091497;28;20471;-72
2022/01/22 08:29:17;;;;;;;15.52;3.10;;;6.80;99.90;;;;;;5092018;28;20024;-73
2022/01/22 08:32:04;;;;;;;12.85;4.90;;;6.80;99.90;;;;;;5091674;28;20429;-73
2022/01/22 08:37:14;;;;;;;6.38;2.67;;;6.70;99.90;;;;;;5082247;28;20057;-74
2022/01/22 08:39:39;;;;;;;7.60;3.03;;;6.70;99.90;;;;;;5091426;28;20032;-75
2022/01/22 08:42:06;;;;;;;9.73;3.10;;;6.60;99.90;;;;;;5090155;28;20085;-75
2022/01/22 08:44:32;;;;;;;12.40;3.00;;;6.70;99.90;;;;;;5091913;28;20425;-72
2022/01/22 08:46:57;;;;;;;9.23;3.00;;;6.70;99.90;;;;;;5092266;28;20106;-72
2022/01/22 08:49:24;;;;;;;9.73;3.33;;;6.70;99.90;;;;;;5093858;28;20028;-73
2022/01/22 08:51:49;;;;;;;11.63;3.30;;;6.80;99.90;;;;;;5096480;28;20051;-73
2022/01/22 08:54:15;;;;;;;9.88;3.35;;;6.80;99.90;;;;;;5095773;28;20085;-73
2022/01/22 08:56:41;;;;;;;12.18;3.70;;;6.90;99.90;;;;;;5090921;28;20028;-72
2022/01/22 08:59:08;;;;;;;11.70;3.90;;;6.90;99.90;;;;;;5077120;28;20530;-73
2022/01/22 09:01:34;;;;;;;8.70;3.42;;;7.00;99.90;;;;;;5095577;28;20036;-72
2022/01/22 09:04:00;;;;;;;11.25;3.47;;;7.00;99.90;;;;;;5083005;28;20032;-73
2022/01/22 09:06:26;;;;;;;15.63;3.90;;;7.10;99.90;;;;;;5094546;28;20020;-72
2022/01/22 09:08:59;;;;;;;14.25;3.92;;;7.10;99.90;;;;;;5078335;28;20052;-73
2022/01/22 09:11:24;;;;;;;18.42;4.60;;;7.10;99.90;;;;;;5092287;28;20438;-75
2022/01/22 09:13:50;;;;;;;8.93;3.88;;;7.10;99.90;;;;;;5083272;28;20028;-70
2022/01/22 09:16:16;;;;;;;9.02;3.95;;;7.20;99.90;;;;;;5094549;28;20106;-73
2022/01/22 09:18:41;;;;;;;11.90;4.15;;;7.10;99.90;;;;;;5095459;28;20027;-75
2022/01/22 09:21:08;;;;;;;9.93;4.28;;;7.20;99.90;;;;;;5095001;28;20092;-73
2022/01/22 09:23:34;;;;;;;18.05;5.32;;;7.20;99.90;;;;;;5094516;28;20475;-73
2022/01/22 09:26:00;;;;;;;10.02;4.32;;;7.30;99.90;;;;;;5095834;28;20028;-73
2022/01/22 09:28:27;;;;;;;12.32;3.63;;;7.30;99.90;;;;;;5095343;28;20024;-72
2022/01/22 09:30:53;;;;;;;6.50;3.72;;;7.30;99.90;;;;;;5094836;28;20031;-73
2022/01/22 09:33:19;;;;;;;7.82;3.90;;;7.40;99.90;;;;;;5095025;28;20369;-73
2022/01/22 09:35:45;;;;;;;15.80;5.53;;;7.40;99.90;;;;;;5095167;28;20490;-73
2022/01/22 09:38:11;;;;;;;7.25;2.92;;;7.40;99.90;;;;;;5094197;28;20032;-72
2022/01/22 09:40:37;;;;;;;8.45;3.40;;;7.50;99.90;;;;;;5095199;28;20022;-74
2022/01/22 09:43:02;;;;;;;9.20;3.70;;;7.40;99.90;;;;;;5095809;28;20028;-74
2022/01/22 09:45:30;;;;;;;5.70;3.10;;;7.50;99.90;;;;;;5095028;28;20405;-73
2022/01/22 09:47:59;;;;;;;9.93;3.35;;;7.40;99.90;;;;;;5094854;28;20024;-73
2022/01/22 09:50:27;;;;;;;11.85;4.05;;;7.40;99.90;;;;;;5094537;28;20028;-73
2022/01/22 09:52:53;;;;;;;12.00;3.75;;;7.40;99.90;;;;;;5094631;28;20465;-72
2022/01/22 09:55:22;;;;;;;14.80;5.55;;;7.40;99.90;;;;;;5094758;28;20119;-73
2022/01/22 09:57:48;;;;;;;8.32;3.80;;;7.40;99.90;;;;;;5094490;28;20024;-75
2022/01/22 10:00:15;;;;;;;7.45;3.72;;;7.50;99.90;;;;;;5093256;28;20039;-73
2022/01/22 10:02:43;;;;;;;14.30;5.80;;;7.50;99.90;;;;;;5094291;28;20028;-75
2022/01/22 10:05:25;;;;;;;8.18;3.42;;;7.50;99.90;;;;;;5093616;28;20024;-74
2022/01/22 10:07:54;;;;;;;10.70;4.32;;;7.50;99.90;;;;;;5093630;28;20411;-76
2022/01/22 10:10:21;;;;;;;12.32;5.28;;;7.40;99.90;;;;;;5094097;28;20134;-77
2022/01/22 10:12:51;;;;;;;8.63;4.40;;;7.40;99.90;;;;;;5092909;28;20024;-73
2022/01/22 10:15:22;;;;;;;10.40;4.75;;;7.50;99.90;;;;;;5096677;28;20020;-76
2022/01/22 10:17:50;;;;;;;9.25;3.85;;;7.50;99.90;;;;;;5095927;28;20077;-75
2022/01/22 10:20:24;;;;;;;7.55;4.05;;;7.50;99.90;;;;;;5096188;28;20055;-76
2022/01/22 10:22:58;;;;;;;12.77;4.68;;;7.50;99.90;;;;;;5096746;28;20036;-77
2022/01/22 10:25:47;;;;;;;9.68;3.85;;;7.60;99.90;;;;;;5103592;28;20480;-77
2022/01/22 10:28:21;;;;;;;6.77;4.63;;;7.60;99.90;;;;;;5097640;28;20028;-76
2022/01/22 10:30:53;;;;;;;14.38;4.78;;;7.70;99.90;;;;;;5095272;28;20100;-76
2022/01/22 10:35:50;;;;;;;6.97;5.03;;;7.70;99.90;;;;;;5073597;28;20051;-74
2022/01/22 10:38:18;;;;;;;8.15;5.05;;;7.70;99.90;;;;;;5074009;28;20539;-74
2022/01/22 10:40:44;;;;;;;10.27;4.50;;;7.70;99.90;;;;;;5073170;28;20024;-73
2022/01/22 10:43:22;;;;;;;17.02;7.18;;;7.70;99.90;;;;;;5073668;28;20480;-76
2022/01/22 10:46:00;;;;;;;5.72;4.28;;;7.70;99.90;;;;;;5079136;28;20033;-75
2022/01/22 10:48:26;;;;;;;10.55;4.75;;;7.70;99.90;;;;;;5091525;28;20103;-75
2022/01/22 10:51:14;;;;;;;10.05;4.68;;;7.70;99.90;;;;;;5090969;28;20377;-76
2022/01/22 10:53:47;;;;;;;10.10;4.45;;;7.70;99.90;;;;;;5093372;28;20108;-76
2022/01/22 10:56:22;;;;;;;8.65;4.60;;;7.80;99.90;;;;;;5092729;28;20494;-75
2022/01/22 10:59:05;;;;;;;15.88;4.80;;;7.80;99.90;;;;;;5094295;28;20024;-73
2022/01/22 11:01:46;;;;;;;12.13;4.85;;;7.80;99.90;;;;;;5092117;28;20032;-75
2022/01/22 11:04:21;;;;;;;11.82;4.70;;;7.90;99.90;;;;;;5092503;28;20022;-75
2022/01/22 11:06:53;;;;;;;14.88;5.57;;;7.80;99.90;;;;;;5087778;28;20514;-74
2022/01/22 11:09:21;;;;;;;13.85;4.97;;;7.80;99.90;;;;;;5092350;28;20016;-76
2022/01/22 11:11:47;;;;;;;10.27;4.63;;;7.90;99.90;;;;;;5091809;28;20048;-75
2022/01/22 11:14:13;;;;;;;8.05;5.10;;;7.90;99.90;;;;;;5092056;28;20023;-70
2022/01/22 11:16:42;;;;;;;10.60;5.32;;;7.90;99.90;;;;;;5092442;28;20052;-75
2022/01/22 11:19:09;;;;;;;13.82;6.07;;;7.90;99.90;;;;;;5076200;28;20082;-75
2022/01/22 11:21:40;;;;;;;9.48;5.50;;;7.90;99.90;;;;;;5089911;28;20036;-75
2022/01/22 11:24:09;;;;;;;12.15;7.03;;;7.90;99.90;;;;;;5092199;28;20039;-75
2022/01/22 11:26:38;;;;;;;16.08;6.57;;;7.90;99.90;;;;;;5086455;28;20030;-75
2022/01/22 11:29:04;;;;;;;10.20;6.13;;;7.80;99.90;;;;;;5072087;28;20020;-75
2022/01/22 11:31:31;;;;;;;17.90;8.90;;;7.80;99.90;;;;;;5074557;28;20064;-77
2022/01/22 11:34:00;;;;;;;19.23;8.00;;;7.90;99.90;;;;;;5090202;28;20494;-77
2022/01/22 11:36:47;;;;;;;11.65;7.15;;;7.80;99.90;;;;;;5092841;28;20024;-77
2022/01/22 11:39:23;;;;;;;9.77;7.05;;;7.70;99.90;;;;;;5076951;28;20070;-77
2022/01/22 11:41:57;;;;;;;13.57;7.03;;;7.70;99.90;;;;;;5073449;28;20427;-77
2022/01/22 11:44:26;;;;;;;11.85;6.68;;;7.90;99.90;;;;;;5072136;28;20029;-77
2022/01/22 11:47:10;;;;;;;12.73;6.55;;;7.90;99.90;;;;;;5073608;28;20031;-76
2022/01/22 11:49:37;;;;;;;12.68;6.88;;;7.90;99.90;;;;;;5073255;28;20025;-76
2022/01/22 11:52:08;;;;;;;13.68;5.93;;;7.90;99.90;;;;;;5072520;28;20067;-76
2022/01/22 11:55:00;;;;;;;16.25;6.70;;;7.90;99.90;;;;;;5073340;28;20024;-75
2022/01/22 11:57:28;;;;;;;14.32;6.70;;;7.90;99.90;;;;;;5072618;28;20060;-76
2022/01/22 12:00:22;;;;;;;13.60;7.13;;;7.90;99.90;;;;;;5075619;28;20027;-76
2022/01/22 12:03:03;;;;;;;11.63;6.68;;;7.90;99.90;;;;;;5082441;28;20399;-76
2022/01/22 12:05:29;;;;;;;17.58;7.38;;;8.00;99.90;;;;;;5074267;28;20530;-77
2022/01/22 12:08:01;;;;;;;10.85;6.60;;;8.00;99.90;;;;;;5074732;28;20098;-75
2022/01/22 12:10:41;;;;;;;15.68;7.30;;;7.90;99.90;;;;;;5072108;28;20035;-77
2022/01/22 12:16:40;;;;;;;9.15;6.25;;;7.90;99.90;;;;;;5073047;28;20040;-76
2022/01/22 12:22:33;;;;;;;11.35;6.38;;;7.80;99.90;;;;;;5074456;28;20037;-77
2022/01/22 12:25:14;;;;;;;7.22;6.05;;;7.80;99.90;;;;;;5076752;28;20097;-76
2022/01/22 12:27:43;;;;;;;;;;;7.80;99.90;;;;;;5077089;28;20020;-76
2022/01/22 12:30:10;;;;;;;15.60;7.05;;;7.80;99.90;;;;;;5076527;28;19908;-76
2022/01/22 12:32:51;;;;;;;13.10;6.70;;;7.90;99.90;;;;;;5077641;28;20484;-76
2022/01/22 12:35:37;;;;;;;16.08;7.25;;;7.90;99.90;;;;;;5076857;28;20024;-76
2022/01/22 12:38:32;;;;;;;10.75;7.45;;;8.00;99.90;;;;;;5076629;28;20066;-77
2022/01/22 12:41:46;;;;;;;12.63;7.15;;;8.00;99.90;;;;;;5076442;28;20037;-76
2022/01/22 12:47:01;;;;;;;13.85;8.30;;;7.90;99.90;;;;;;5075674;28;20439;-77
2022/01/22 12:49:27;;;;;;;;;;;7.80;99.90;;;;;;5075257;28;20081;-76
2022/01/22 12:51:54;;;;;;;16.45;8.15;;;7.90;99.90;;;;;;5075332;28;19904;-76
2022/01/22 12:54:31;;;;;;;13.02;9.57;;;7.90;99.90;;;;;;5084851;28;20020;-77
2022/01/22 12:57:10;;;;;;;14.85;10.27;;;7.90;99.90;;;;;;5092361;28;20488;-76
2022/01/22 13:00:07;;;;;;;23.23;12.90;;;7.90;99.90;;;;;;5092486;28;20036;-76
2022/01/22 13:02:40;;;;;;;20.55;11.82;;;7.80;99.90;;;;;;5093198;28;20499;-76
2022/01/22 13:05:07;;;;;;;23.30;12.55;;;7.90;99.90;;;;;;5094585;28;20024;-76
2022/01/22 13:08:02;;;;;;;30.52;13.23;;;7.80;99.90;;;;;;5097434;28;20078;-76
2022/01/22 13:10:33;;;;;;;20.65;12.75;;;7.80;99.90;;;;;;5091765;28;20387;-76
2022/01/22 13:13:03;;;;;;;24.20;15.05;;;7.90;99.90;;;;;;5094647;28;20487;-76
2022/01/22 13:15:30;;;;;;;17.17;11.52;;;7.80;99.90;;;;;;5092969;28;20179;-77
2022/01/22 13:17:58;;;;;;;27.92;13.43;;;7.80;99.90;;;;;;5094638;28;20042;-77
2022/01/22 13:20:27;;;;;;;34.55;15.80;;;7.80;99.90;;;;;;5093706;28;20036;-76
2022/01/22 13:22:54;;;;;;;17.55;13.02;;;7.70;99.90;;;;;;5092256;28;20043;-76
2022/01/22 13:25:21;;;;;;;26.77;14.02;;;7.70;99.90;;;;;;5093269;28;20027;-76
2022/01/22 13:28:11;;;;;;;28.48;14.13;;;7.70;99.90;;;;;;5093960;28;20028;-75
2022/01/22 13:30:44;;;;;;;25.42;13.63;;;7.70;99.90;;;;;;5091372;28;20032;-76
2022/01/22 13:33:21;;;;;;;23.83;14.27;;;7.60;99.90;;;;;;5090628;28;20024;-76
2022/01/22 13:36:06;;;;;;;27.77;15.30;;;7.60;99.90;;;;;;5090285;28;20028;-76
2022/01/22 13:49:29;;;;;;;34.25;14.88;;;7.50;99.90;;;;;;5091693;28;20031;-75
2022/01/22 13:52:06;;;;;;;30.08;14.75;;;7.50;99.90;;;;;;5091935;28;20038;-75
2022/01/22 13:54:38;;;;;;;28.17;15.18;;;7.50;99.90;;;;;;5091098;28;20028;-76
2022/01/22 13:57:08;;;;;;;23.60;13.93;;;7.40;99.90;;;;;;5087893;28;20051;-75
2022/01/22 13:59:42;;;;;;;22.45;13.73;;;7.40;99.90;;;;;;5077013;28;20032;-75
2022/01/22 14:04:49;;;;;;;21.27;12.82;;;7.40;99.90;;;;;;5090377;28;20012;-75
2022/01/22 14:07:23;;;;;;;23.38;14.63;;;7.40;99.90;;;;;;5092037;28;20510;-74
2022/01/22 14:10:01;;;;;;;18.52;14.13;;;7.40;99.90;;;;;;5091211;28;20032;-75
2022/01/22 14:12:41;;;;;;;18.55;12.45;;;7.40;99.90;;;;;;5090694;28;20379;-75
2022/01/22 14:15:11;;;;;;;18.30;13.18;;;7.40;99.90;;;;;;5088940;28;20549;-75
2022/01/22 14:20:52;;;;;;;19.97;12.57;;;7.30;99.90;;;;;;5069366;28;20298;-75
2022/01/22 14:23:24;;;;;;;25.10;13.40;;;7.30;99.90;;;;;;5091711;28;20457;-75
2022/01/22 14:26:11;;;;;;;21.13;13.63;;;7.30;99.90;;;;;;5091534;28;20092;-76
2022/01/22 14:28:47;;;;;;;24.42;13.18;;;7.30;99.90;;;;;;5095152;28;20089;-76
2022/01/22 14:31:31;;;;;;;17.40;13.30;;;7.30;99.90;;;;;;5089236;28;20376;-76
2022/01/22 14:33:58;;;;;;;31.75;14.52;;;7.30;99.90;;;;;;5091804;28;20055;-76
2022/01/22 14:36:27;;;;;;;20.20;13.73;;;7.30;99.90;;;;;;5092358;28;20024;-77
2022/01/22 14:39:25;;;;;;;20.77;14.18;;;7.20;99.90;;;;;;5094277;28;20028;-76
2022/01/22 14:44:55;;;;;;;26.02;14.57;;;7.10;99.90;;;;;;5089954;28;20482;-76
2022/01/22 14:47:23;;;;;;;29.58;14.77;;;7.20;99.90;;;;;;5091432;28;20070;-76
2022/01/22 14:50:04;;;;;;;20.77;14.75;;;7.10;99.90;;;;;;5092405;28;20028;-76
2022/01/22 14:52:30;;;;;;;25.55;15.65;;;7.10;99.90;;;;;;5092256;28;20107;-76
2022/01/22 14:54:59;;;;;;;29.08;15.43;;;7.20;99.90;;;;;;5091947;28;20127;-77
2022/01/22 14:57:28;;;;;;;20.35;14.75;;;7.10;99.90;;;;;;5091992;28;20105;-77
2022/01/22 14:59:54;;;;;;;29.33;16.63;;;7.10;99.90;;;;;;5092554;28;20035;-77
2022/01/22 15:02:20;;;;;;;25.25;16.25;;;7.10;99.90;;;;;;5091152;28;20028;-76
2022/01/22 15:04:46;;;;;;;30.15;17.08;;;7.00;99.90;;;;;;5089307;28;20024;-76
2022/01/22 15:07:15;;;;;;;27.00;16.55;;;7.00;99.90;;;;;;5091291;28;20044;-75